<?xml version="1.0" encoding="UTF-8" standalone="no" ?>
<gpx xmlns="http://www.topografix.com/GPX/1/1" xmlns:xsi="http://www.w3.org/2001/XMLSchema-instance" xsi:schemaLocation="http://www.topografix.com/GPX/1/1 http://www.topografix.com/GPX/1/1/gpx.xsd" version="1.1" creator="VisuGPX - https://www.visugpx.com">
  <metadata>
    <name>Aubrac - mailhebiau et autour du village d\'Aubrac </name>
    <desc><![CDATA[Randonnée en 2 temps : mailhebiau ( point culminant ) et autour du village d\'Aubrac ]]></desc>
  </metadata>
  <trk>
    <name><![CDATA[ACTIVE LOG152051]]></name>
    <trkseg>
      <trkpt lat="44.60314" lon="3.02903">
        <ele>1328.504</ele>
        <time>2011-06-25T13:20:50Z</time>
      </trkpt>
      <trkpt lat="44.60314" lon="3.02876">
        <ele>1329.677</ele>
        <time>2011-06-25T13:24:45Z</time>
      </trkpt>
      <trkpt lat="44.60312" lon="3.02856">
        <ele>1330.893</ele>
        <time>2011-06-25T13:24:57Z</time>
      </trkpt>
      <trkpt lat="44.603" lon="3.02835">
        <ele>1331.717</ele>
        <time>2011-06-25T13:25:08Z</time>
      </trkpt>
      <trkpt lat="44.60299" lon="3.02823">
        <ele>1332.598</ele>
        <time>2011-06-25T13:25:16Z</time>
      </trkpt>
      <trkpt lat="44.60298" lon="3.02807">
        <ele>1332.864</ele>
        <time>2011-06-25T13:25:30Z</time>
      </trkpt>
      <trkpt lat="44.60294" lon="3.02792">
        <ele>1334.158</ele>
        <time>2011-06-25T13:25:41Z</time>
      </trkpt>
      <trkpt lat="44.60291" lon="3.02777">
        <ele>1334.751</ele>
        <time>2011-06-25T13:25:50Z</time>
      </trkpt>
      <trkpt lat="44.60282" lon="3.02767">
        <ele>1336.367</ele>
        <time>2011-06-25T13:26:00Z</time>
      </trkpt>
      <trkpt lat="44.60279" lon="3.02758">
        <ele>1334.944</ele>
        <time>2011-06-25T13:26:27Z</time>
      </trkpt>
      <trkpt lat="44.60271" lon="3.02758">
        <ele>1335.179</ele>
        <time>2011-06-25T13:26:46Z</time>
      </trkpt>
      <trkpt lat="44.6026" lon="3.02761">
        <ele>1334.831</ele>
        <time>2011-06-25T13:26:54Z</time>
      </trkpt>
      <trkpt lat="44.60249" lon="3.02762">
        <ele>1333.88</ele>
        <time>2011-06-25T13:27:02Z</time>
      </trkpt>
      <trkpt lat="44.60239" lon="3.02759">
        <ele>1333.582</ele>
        <time>2011-06-25T13:27:10Z</time>
      </trkpt>
      <trkpt lat="44.6023" lon="3.02754">
        <ele>1333.768</ele>
        <time>2011-06-25T13:27:19Z</time>
      </trkpt>
      <trkpt lat="44.60221" lon="3.02745">
        <ele>1333.409</ele>
        <time>2011-06-25T13:27:28Z</time>
      </trkpt>
      <trkpt lat="44.60213" lon="3.02736">
        <ele>1333.291</ele>
        <time>2011-06-25T13:27:36Z</time>
      </trkpt>
      <trkpt lat="44.60205" lon="3.02727">
        <ele>1333.169</ele>
        <time>2011-06-25T13:27:44Z</time>
      </trkpt>
      <trkpt lat="44.60197" lon="3.02718">
        <ele>1332.227</ele>
        <time>2011-06-25T13:27:52Z</time>
      </trkpt>
      <trkpt lat="44.60189" lon="3.0271">
        <ele>1332.824</ele>
        <time>2011-06-25T13:28:01Z</time>
      </trkpt>
      <trkpt lat="44.60181" lon="3.02704">
        <ele>1332.999</ele>
        <time>2011-06-25T13:28:10Z</time>
      </trkpt>
      <trkpt lat="44.60172" lon="3.02697">
        <ele>1333.036</ele>
        <time>2011-06-25T13:28:19Z</time>
      </trkpt>
      <trkpt lat="44.60164" lon="3.0269">
        <ele>1333.19</ele>
        <time>2011-06-25T13:28:28Z</time>
      </trkpt>
      <trkpt lat="44.60155" lon="3.02682">
        <ele>1333.55</ele>
        <time>2011-06-25T13:28:37Z</time>
      </trkpt>
      <trkpt lat="44.60146" lon="3.02675">
        <ele>1333.146</ele>
        <time>2011-06-25T13:28:47Z</time>
      </trkpt>
      <trkpt lat="44.60137" lon="3.02666">
        <ele>1333.438</ele>
        <time>2011-06-25T13:28:56Z</time>
      </trkpt>
      <trkpt lat="44.60127" lon="3.02659">
        <ele>1333.094</ele>
        <time>2011-06-25T13:29:04Z</time>
      </trkpt>
      <trkpt lat="44.60119" lon="3.02651">
        <ele>1333.483</ele>
        <time>2011-06-25T13:29:12Z</time>
      </trkpt>
      <trkpt lat="44.60108" lon="3.02647">
        <ele>1333.528</ele>
        <time>2011-06-25T13:29:20Z</time>
      </trkpt>
      <trkpt lat="44.60098" lon="3.02646">
        <ele>1333.421</ele>
        <time>2011-06-25T13:29:27Z</time>
      </trkpt>
      <trkpt lat="44.60088" lon="3.02649">
        <ele>1333.809</ele>
        <time>2011-06-25T13:29:35Z</time>
      </trkpt>
      <trkpt lat="44.60078" lon="3.02653">
        <ele>1333.66</ele>
        <time>2011-06-25T13:29:43Z</time>
      </trkpt>
      <trkpt lat="44.60068" lon="3.02656">
        <ele>1333.973</ele>
        <time>2011-06-25T13:29:51Z</time>
      </trkpt>
      <trkpt lat="44.60058" lon="3.02658">
        <ele>1334.018</ele>
        <time>2011-06-25T13:29:59Z</time>
      </trkpt>
      <trkpt lat="44.60048" lon="3.02657">
        <ele>1333.91</ele>
        <time>2011-06-25T13:30:07Z</time>
      </trkpt>
      <trkpt lat="44.60038" lon="3.02656">
        <ele>1334.036</ele>
        <time>2011-06-25T13:30:15Z</time>
      </trkpt>
      <trkpt lat="44.6003" lon="3.02651">
        <ele>1335.073</ele>
        <time>2011-06-25T13:30:23Z</time>
      </trkpt>
      <trkpt lat="44.60019" lon="3.02646">
        <ele>1334.354</ele>
        <time>2011-06-25T13:30:31Z</time>
      </trkpt>
      <trkpt lat="44.6001" lon="3.02641">
        <ele>1334.752</ele>
        <time>2011-06-25T13:30:39Z</time>
      </trkpt>
      <trkpt lat="44.60001" lon="3.02637">
        <ele>1335.114</ele>
        <time>2011-06-25T13:30:47Z</time>
      </trkpt>
      <trkpt lat="44.59991" lon="3.02631">
        <ele>1334.476</ele>
        <time>2011-06-25T13:30:54Z</time>
      </trkpt>
      <trkpt lat="44.59982" lon="3.02628">
        <ele>1334.577</ele>
        <time>2011-06-25T13:31:02Z</time>
      </trkpt>
      <trkpt lat="44.59972" lon="3.02624">
        <ele>1334.459</ele>
        <time>2011-06-25T13:31:20Z</time>
      </trkpt>
      <trkpt lat="44.59964" lon="3.02618">
        <ele>1333.928</ele>
        <time>2011-06-25T13:31:28Z</time>
      </trkpt>
      <trkpt lat="44.59955" lon="3.0261">
        <ele>1334.023</ele>
        <time>2011-06-25T13:31:37Z</time>
      </trkpt>
      <trkpt lat="44.59948" lon="3.02604">
        <ele>1333.18</ele>
        <time>2011-06-25T13:31:45Z</time>
      </trkpt>
      <trkpt lat="44.5994" lon="3.02596">
        <ele>1332.749</ele>
        <time>2011-06-25T13:31:53Z</time>
      </trkpt>
      <trkpt lat="44.59932" lon="3.02588">
        <ele>1331.28</ele>
        <time>2011-06-25T13:32:01Z</time>
      </trkpt>
      <trkpt lat="44.59923" lon="3.0258">
        <ele>1330.705</ele>
        <time>2011-06-25T13:32:10Z</time>
      </trkpt>
      <trkpt lat="44.59912" lon="3.02569">
        <ele>1330.693</ele>
        <time>2011-06-25T13:32:18Z</time>
      </trkpt>
      <trkpt lat="44.59905" lon="3.02561">
        <ele>1330.197</ele>
        <time>2011-06-25T13:32:27Z</time>
      </trkpt>
      <trkpt lat="44.599" lon="3.02557">
        <ele>1328.287</ele>
        <time>2011-06-25T13:32:46Z</time>
      </trkpt>
      <trkpt lat="44.59908" lon="3.0257">
        <ele>1329.129</ele>
        <time>2011-06-25T13:32:59Z</time>
      </trkpt>
      <trkpt lat="44.59903" lon="3.02576">
        <ele>1331.451</ele>
        <time>2011-06-25T13:33:46Z</time>
      </trkpt>
      <trkpt lat="44.59892" lon="3.02582">
        <ele>1330.999</ele>
        <time>2011-06-25T13:33:55Z</time>
      </trkpt>
      <trkpt lat="44.59882" lon="3.02584">
        <ele>1331.497</ele>
        <time>2011-06-25T13:34:04Z</time>
      </trkpt>
      <trkpt lat="44.59872" lon="3.02591">
        <ele>1331.462</ele>
        <time>2011-06-25T13:34:14Z</time>
      </trkpt>
      <trkpt lat="44.59862" lon="3.0259">
        <ele>1332.168</ele>
        <time>2011-06-25T13:34:24Z</time>
      </trkpt>
      <trkpt lat="44.59852" lon="3.02588">
        <ele>1333.293</ele>
        <time>2011-06-25T13:34:34Z</time>
      </trkpt>
      <trkpt lat="44.59842" lon="3.02591">
        <ele>1334.596</ele>
        <time>2011-06-25T13:34:43Z</time>
      </trkpt>
      <trkpt lat="44.59834" lon="3.02594">
        <ele>1334.681</ele>
        <time>2011-06-25T13:34:53Z</time>
      </trkpt>
      <trkpt lat="44.5983" lon="3.02584">
        <ele>1335.394</ele>
        <time>2011-06-25T13:35:03Z</time>
      </trkpt>
      <trkpt lat="44.59826" lon="3.02574">
        <ele>1336.214</ele>
        <time>2011-06-25T13:35:13Z</time>
      </trkpt>
      <trkpt lat="44.59816" lon="3.02568">
        <ele>1337.908</ele>
        <time>2011-06-25T13:35:23Z</time>
      </trkpt>
      <trkpt lat="44.59802" lon="3.02562">
        <ele>1338.399</ele>
        <time>2011-06-25T13:35:33Z</time>
      </trkpt>
      <trkpt lat="44.59791" lon="3.02563">
        <ele>1340.849</ele>
        <time>2011-06-25T13:35:45Z</time>
      </trkpt>
      <trkpt lat="44.59781" lon="3.02562">
        <ele>1342.809</ele>
        <time>2011-06-25T13:35:55Z</time>
      </trkpt>
      <trkpt lat="44.59769" lon="3.02563">
        <ele>1343.285</ele>
        <time>2011-06-25T13:36:04Z</time>
      </trkpt>
      <trkpt lat="44.5976" lon="3.02563">
        <ele>1343.914</ele>
        <time>2011-06-25T13:36:14Z</time>
      </trkpt>
      <trkpt lat="44.59753" lon="3.02561">
        <ele>1344.403</ele>
        <time>2011-06-25T13:36:23Z</time>
      </trkpt>
      <trkpt lat="44.59746" lon="3.02556">
        <ele>1344.677</ele>
        <time>2011-06-25T13:36:34Z</time>
      </trkpt>
      <trkpt lat="44.59742" lon="3.02544">
        <ele>1344.825</ele>
        <time>2011-06-25T13:36:43Z</time>
      </trkpt>
      <trkpt lat="44.59737" lon="3.02531">
        <ele>1343.755</ele>
        <time>2011-06-25T13:36:52Z</time>
      </trkpt>
      <trkpt lat="44.59731" lon="3.02518">
        <ele>1345.325</ele>
        <time>2011-06-25T13:37:01Z</time>
      </trkpt>
      <trkpt lat="44.59728" lon="3.02507">
        <ele>1345.782</ele>
        <time>2011-06-25T13:37:19Z</time>
      </trkpt>
      <trkpt lat="44.59722" lon="3.02497">
        <ele>1345.339</ele>
        <time>2011-06-25T13:37:27Z</time>
      </trkpt>
      <trkpt lat="44.59718" lon="3.02486">
        <ele>1344.636</ele>
        <time>2011-06-25T13:37:36Z</time>
      </trkpt>
      <trkpt lat="44.59713" lon="3.02474">
        <ele>1345.239</ele>
        <time>2011-06-25T13:37:44Z</time>
      </trkpt>
      <trkpt lat="44.59707" lon="3.02464">
        <ele>1345.5</ele>
        <time>2011-06-25T13:37:52Z</time>
      </trkpt>
      <trkpt lat="44.59701" lon="3.02454">
        <ele>1346.026</ele>
        <time>2011-06-25T13:38:01Z</time>
      </trkpt>
      <trkpt lat="44.59692" lon="3.02445">
        <ele>1346.121</ele>
        <time>2011-06-25T13:38:11Z</time>
      </trkpt>
      <trkpt lat="44.59682" lon="3.0244">
        <ele>1345.052</ele>
        <time>2011-06-25T13:38:19Z</time>
      </trkpt>
      <trkpt lat="44.59673" lon="3.02434">
        <ele>1344.59</ele>
        <time>2011-06-25T13:38:28Z</time>
      </trkpt>
      <trkpt lat="44.59664" lon="3.02429">
        <ele>1344.436</ele>
        <time>2011-06-25T13:38:36Z</time>
      </trkpt>
      <trkpt lat="44.59653" lon="3.02424">
        <ele>1343.096</ele>
        <time>2011-06-25T13:38:45Z</time>
      </trkpt>
      <trkpt lat="44.59642" lon="3.0242">
        <ele>1342.789</ele>
        <time>2011-06-25T13:38:53Z</time>
      </trkpt>
      <trkpt lat="44.59634" lon="3.02414">
        <ele>1342.774</ele>
        <time>2011-06-25T13:39:01Z</time>
      </trkpt>
      <trkpt lat="44.59624" lon="3.02407">
        <ele>1342.348</ele>
        <time>2011-06-25T13:39:21Z</time>
      </trkpt>
      <trkpt lat="44.59614" lon="3.02399">
        <ele>1342.637</ele>
        <time>2011-06-25T13:39:31Z</time>
      </trkpt>
      <trkpt lat="44.59603" lon="3.02393">
        <ele>1342.794</ele>
        <time>2011-06-25T13:39:40Z</time>
      </trkpt>
      <trkpt lat="44.59593" lon="3.0239">
        <ele>1342.943</ele>
        <time>2011-06-25T13:39:50Z</time>
      </trkpt>
      <trkpt lat="44.5958" lon="3.02383">
        <ele>1344.052</ele>
        <time>2011-06-25T13:40:03Z</time>
      </trkpt>
      <trkpt lat="44.59564" lon="3.02379">
        <ele>1344.827</ele>
        <time>2011-06-25T13:40:22Z</time>
      </trkpt>
      <trkpt lat="44.59554" lon="3.02372">
        <ele>1344.424</ele>
        <time>2011-06-25T13:40:41Z</time>
      </trkpt>
      <trkpt lat="44.59543" lon="3.02366">
        <ele>1343.485</ele>
        <time>2011-06-25T13:40:51Z</time>
      </trkpt>
      <trkpt lat="44.59531" lon="3.02359">
        <ele>1343.072</ele>
        <time>2011-06-25T13:41:00Z</time>
      </trkpt>
      <trkpt lat="44.59521" lon="3.02354">
        <ele>1342.811</ele>
        <time>2011-06-25T13:41:08Z</time>
      </trkpt>
      <trkpt lat="44.59509" lon="3.02351">
        <ele>1342.31</ele>
        <time>2011-06-25T13:41:16Z</time>
      </trkpt>
      <trkpt lat="44.59497" lon="3.02348">
        <ele>1341.791</ele>
        <time>2011-06-25T13:41:27Z</time>
      </trkpt>
      <trkpt lat="44.59484" lon="3.02344">
        <ele>1341.49</ele>
        <time>2011-06-25T13:41:38Z</time>
      </trkpt>
      <trkpt lat="44.59472" lon="3.02336">
        <ele>1340.658</ele>
        <time>2011-06-25T13:41:48Z</time>
      </trkpt>
      <trkpt lat="44.59459" lon="3.02325">
        <ele>1340.734</ele>
        <time>2011-06-25T13:41:59Z</time>
      </trkpt>
      <trkpt lat="44.5945" lon="3.02316">
        <ele>1341.355</ele>
        <time>2011-06-25T13:42:11Z</time>
      </trkpt>
      <trkpt lat="44.59439" lon="3.02308">
        <ele>1340.633</ele>
        <time>2011-06-25T13:42:24Z</time>
      </trkpt>
      <trkpt lat="44.59427" lon="3.02303">
        <ele>1341.11</ele>
        <time>2011-06-25T13:42:36Z</time>
      </trkpt>
      <trkpt lat="44.59415" lon="3.02296">
        <ele>1341.43</ele>
        <time>2011-06-25T13:42:45Z</time>
      </trkpt>
      <trkpt lat="44.59403" lon="3.02286">
        <ele>1340.846</ele>
        <time>2011-06-25T13:42:55Z</time>
      </trkpt>
      <trkpt lat="44.5939" lon="3.02279">
        <ele>1341.103</ele>
        <time>2011-06-25T13:43:05Z</time>
      </trkpt>
      <trkpt lat="44.59378" lon="3.02267">
        <ele>1341.441</ele>
        <time>2011-06-25T13:43:17Z</time>
      </trkpt>
      <trkpt lat="44.59367" lon="3.02257">
        <ele>1341.365</ele>
        <time>2011-06-25T13:43:29Z</time>
      </trkpt>
      <trkpt lat="44.59357" lon="3.02246">
        <ele>1341.575</ele>
        <time>2011-06-25T13:43:43Z</time>
      </trkpt>
      <trkpt lat="44.59334" lon="3.02231">
        <ele>1341.5</ele>
        <time>2011-06-25T13:43:58Z</time>
      </trkpt>
      <trkpt lat="44.59319" lon="3.02223">
        <ele>1342.104</ele>
        <time>2011-06-25T13:44:13Z</time>
      </trkpt>
      <trkpt lat="44.59314" lon="3.02214">
        <ele>1341.874</ele>
        <time>2011-06-25T13:44:38Z</time>
      </trkpt>
      <trkpt lat="44.59306" lon="3.02206">
        <ele>1341.706</ele>
        <time>2011-06-25T13:45:13Z</time>
      </trkpt>
      <trkpt lat="44.59295" lon="3.02197">
        <ele>1341.801</ele>
        <time>2011-06-25T13:45:29Z</time>
      </trkpt>
      <trkpt lat="44.5928" lon="3.0219">
        <ele>1341.756</ele>
        <time>2011-06-25T13:45:40Z</time>
      </trkpt>
      <trkpt lat="44.59265" lon="3.02188">
        <ele>1341.493</ele>
        <time>2011-06-25T13:45:51Z</time>
      </trkpt>
      <trkpt lat="44.59252" lon="3.02177">
        <ele>1341.596</ele>
        <time>2011-06-25T13:46:04Z</time>
      </trkpt>
      <trkpt lat="44.59243" lon="3.02165">
        <ele>1341.06</ele>
        <time>2011-06-25T13:46:16Z</time>
      </trkpt>
      <trkpt lat="44.59225" lon="3.02157">
        <ele>1340.481</ele>
        <time>2011-06-25T13:46:28Z</time>
      </trkpt>
      <trkpt lat="44.59214" lon="3.02147">
        <ele>1339.989</ele>
        <time>2011-06-25T13:46:37Z</time>
      </trkpt>
      <trkpt lat="44.59215" lon="3.0213">
        <ele>1339.544</ele>
        <time>2011-06-25T13:46:46Z</time>
      </trkpt>
      <trkpt lat="44.59218" lon="3.02116">
        <ele>1338.305</ele>
        <time>2011-06-25T13:46:56Z</time>
      </trkpt>
      <trkpt lat="44.59223" lon="3.021">
        <ele>1337.091</ele>
        <time>2011-06-25T13:47:05Z</time>
      </trkpt>
      <trkpt lat="44.59229" lon="3.02084">
        <ele>1336.063</ele>
        <time>2011-06-25T13:47:16Z</time>
      </trkpt>
      <trkpt lat="44.59234" lon="3.02064">
        <ele>1335.432</ele>
        <time>2011-06-25T13:47:27Z</time>
      </trkpt>
      <trkpt lat="44.59224" lon="3.02056">
        <ele>1336.068</ele>
        <time>2011-06-25T13:47:38Z</time>
      </trkpt>
      <trkpt lat="44.59214" lon="3.02051">
        <ele>1335.872</ele>
        <time>2011-06-25T13:47:46Z</time>
      </trkpt>
      <trkpt lat="44.59204" lon="3.02043">
        <ele>1336.505</ele>
        <time>2011-06-25T13:47:55Z</time>
      </trkpt>
      <trkpt lat="44.5919" lon="3.02035">
        <ele>1336.515</ele>
        <time>2011-06-25T13:48:05Z</time>
      </trkpt>
      <trkpt lat="44.59179" lon="3.02024">
        <ele>1336.526</ele>
        <time>2011-06-25T13:48:14Z</time>
      </trkpt>
      <trkpt lat="44.59172" lon="3.02011">
        <ele>1336.473</ele>
        <time>2011-06-25T13:48:26Z</time>
      </trkpt>
      <trkpt lat="44.59171" lon="3.01994">
        <ele>1336.473</ele>
        <time>2011-06-25T13:48:44Z</time>
      </trkpt>
      <trkpt lat="44.59168" lon="3.01978">
        <ele>1335.301</ele>
        <time>2011-06-25T13:48:56Z</time>
      </trkpt>
      <trkpt lat="44.59157" lon="3.01961">
        <ele>1334.385</ele>
        <time>2011-06-25T13:49:11Z</time>
      </trkpt>
      <trkpt lat="44.59152" lon="3.01935">
        <ele>1332.848</ele>
        <time>2011-06-25T13:49:25Z</time>
      </trkpt>
      <trkpt lat="44.59148" lon="3.01916">
        <ele>1332.552</ele>
        <time>2011-06-25T13:49:35Z</time>
      </trkpt>
      <trkpt lat="44.59142" lon="3.01897">
        <ele>1331.375</ele>
        <time>2011-06-25T13:49:46Z</time>
      </trkpt>
      <trkpt lat="44.59141" lon="3.01878">
        <ele>1330.812</ele>
        <time>2011-06-25T13:49:59Z</time>
      </trkpt>
      <trkpt lat="44.59145" lon="3.01861">
        <ele>1330.682</ele>
        <time>2011-06-25T13:50:12Z</time>
      </trkpt>
      <trkpt lat="44.59149" lon="3.01845">
        <ele>1329.812</ele>
        <time>2011-06-25T13:50:23Z</time>
      </trkpt>
      <trkpt lat="44.59158" lon="3.01825">
        <ele>1328.951</ele>
        <time>2011-06-25T13:50:34Z</time>
      </trkpt>
      <trkpt lat="44.59165" lon="3.01812">
        <ele>1328.366</ele>
        <time>2011-06-25T13:50:48Z</time>
      </trkpt>
      <trkpt lat="44.5917" lon="3.01805">
        <ele>1327.804</ele>
        <time>2011-06-25T13:50:57Z</time>
      </trkpt>
      <trkpt lat="44.59181" lon="3.01797">
        <ele>1327.164</ele>
        <time>2011-06-25T13:51:09Z</time>
      </trkpt>
      <trkpt lat="44.59191" lon="3.01783">
        <ele>1326.328</ele>
        <time>2011-06-25T13:51:20Z</time>
      </trkpt>
      <trkpt lat="44.59198" lon="3.01769">
        <ele>1326.122</ele>
        <time>2011-06-25T13:51:31Z</time>
      </trkpt>
      <trkpt lat="44.59203" lon="3.01754">
        <ele>1326.155</ele>
        <time>2011-06-25T13:51:41Z</time>
      </trkpt>
      <trkpt lat="44.59209" lon="3.01742">
        <ele>1326.512</ele>
        <time>2011-06-25T13:51:52Z</time>
      </trkpt>
      <trkpt lat="44.59221" lon="3.01738">
        <ele>1326.131</ele>
        <time>2011-06-25T13:52:04Z</time>
      </trkpt>
      <trkpt lat="44.59233" lon="3.01727">
        <ele>1326.366</ele>
        <time>2011-06-25T13:52:16Z</time>
      </trkpt>
      <trkpt lat="44.59244" lon="3.01714">
        <ele>1325.68</ele>
        <time>2011-06-25T13:52:28Z</time>
      </trkpt>
      <trkpt lat="44.5925" lon="3.01695">
        <ele>1325.923</ele>
        <time>2011-06-25T13:52:42Z</time>
      </trkpt>
      <trkpt lat="44.59259" lon="3.01677">
        <ele>1325.793</ele>
        <time>2011-06-25T13:52:57Z</time>
      </trkpt>
      <trkpt lat="44.59264" lon="3.01654">
        <ele>1326.11</ele>
        <time>2011-06-25T13:53:13Z</time>
      </trkpt>
      <trkpt lat="44.59264" lon="3.01626">
        <ele>1326.531</ele>
        <time>2011-06-25T13:53:30Z</time>
      </trkpt>
      <trkpt lat="44.59267" lon="3.016">
        <ele>1325.894</ele>
        <time>2011-06-25T13:53:49Z</time>
      </trkpt>
      <trkpt lat="44.59277" lon="3.01583">
        <ele>1325.585</ele>
        <time>2011-06-25T13:54:03Z</time>
      </trkpt>
      <trkpt lat="44.59291" lon="3.01567">
        <ele>1324.608</ele>
        <time>2011-06-25T13:55:04Z</time>
      </trkpt>
      <trkpt lat="44.59279" lon="3.01558">
        <ele>1324.485</ele>
        <time>2011-06-25T13:56:34Z</time>
      </trkpt>
      <trkpt lat="44.59293" lon="3.01549">
        <ele>1323.519</ele>
        <time>2011-06-25T13:58:29Z</time>
      </trkpt>
      <trkpt lat="44.59286" lon="3.01526">
        <ele>1322.77</ele>
        <time>2011-06-25T13:58:47Z</time>
      </trkpt>
      <trkpt lat="44.59282" lon="3.01507">
        <ele>1322.499</ele>
        <time>2011-06-25T13:59:02Z</time>
      </trkpt>
      <trkpt lat="44.59282" lon="3.01488">
        <ele>1322.106</ele>
        <time>2011-06-25T13:59:15Z</time>
      </trkpt>
      <trkpt lat="44.59278" lon="3.01467">
        <ele>1321.298</ele>
        <time>2011-06-25T13:59:30Z</time>
      </trkpt>
      <trkpt lat="44.59281" lon="3.01442">
        <ele>1319.902</ele>
        <time>2011-06-25T13:59:43Z</time>
      </trkpt>
      <trkpt lat="44.59286" lon="3.01428">
        <ele>1319.562</ele>
        <time>2011-06-25T13:59:54Z</time>
      </trkpt>
      <trkpt lat="44.59284" lon="3.01408">
        <ele>1318.942</ele>
        <time>2011-06-25T14:00:05Z</time>
      </trkpt>
      <trkpt lat="44.59277" lon="3.0139">
        <ele>1318.646</ele>
        <time>2011-06-25T14:00:17Z</time>
      </trkpt>
      <trkpt lat="44.59266" lon="3.01374">
        <ele>1318.071</ele>
        <time>2011-06-25T14:00:34Z</time>
      </trkpt>
      <trkpt lat="44.59258" lon="3.01357">
        <ele>1318.046</ele>
        <time>2011-06-25T14:00:45Z</time>
      </trkpt>
      <trkpt lat="44.59248" lon="3.01334">
        <ele>1316.292</ele>
        <time>2011-06-25T14:01:00Z</time>
      </trkpt>
      <trkpt lat="44.59237" lon="3.01317">
        <ele>1315.914</ele>
        <time>2011-06-25T14:01:14Z</time>
      </trkpt>
      <trkpt lat="44.59223" lon="3.01306">
        <ele>1315.289</ele>
        <time>2011-06-25T14:01:28Z</time>
      </trkpt>
      <trkpt lat="44.59202" lon="3.01287">
        <ele>1314.024</ele>
        <time>2011-06-25T14:01:48Z</time>
      </trkpt>
      <trkpt lat="44.5919" lon="3.0127">
        <ele>1312.935</ele>
        <time>2011-06-25T14:02:04Z</time>
      </trkpt>
      <trkpt lat="44.59178" lon="3.01252">
        <ele>1312.369</ele>
        <time>2011-06-25T14:02:19Z</time>
      </trkpt>
      <trkpt lat="44.5917" lon="3.01228">
        <ele>1311.441</ele>
        <time>2011-06-25T14:02:35Z</time>
      </trkpt>
      <trkpt lat="44.59165" lon="3.0121">
        <ele>1311.439</ele>
        <time>2011-06-25T14:02:49Z</time>
      </trkpt>
      <trkpt lat="44.59156" lon="3.01195">
        <ele>1310.783</ele>
        <time>2011-06-25T14:03:00Z</time>
      </trkpt>
      <trkpt lat="44.59152" lon="3.01174">
        <ele>1310.599</ele>
        <time>2011-06-25T14:03:13Z</time>
      </trkpt>
      <trkpt lat="44.59148" lon="3.01156">
        <ele>1309.722</ele>
        <time>2011-06-25T14:03:25Z</time>
      </trkpt>
      <trkpt lat="44.59146" lon="3.01133">
        <ele>1308.539</ele>
        <time>2011-06-25T14:03:39Z</time>
      </trkpt>
      <trkpt lat="44.59145" lon="3.01116">
        <ele>1308.129</ele>
        <time>2011-06-25T14:03:52Z</time>
      </trkpt>
      <trkpt lat="44.5915" lon="3.01096">
        <ele>1307.721</ele>
        <time>2011-06-25T14:04:09Z</time>
      </trkpt>
      <trkpt lat="44.5915" lon="3.01081">
        <ele>1307.95</ele>
        <time>2011-06-25T14:04:21Z</time>
      </trkpt>
      <trkpt lat="44.59153" lon="3.01073">
        <ele>1307.471</ele>
        <time>2011-06-25T14:04:32Z</time>
      </trkpt>
      <trkpt lat="44.59155" lon="3.01061">
        <ele>1308.132</ele>
        <time>2011-06-25T14:04:59Z</time>
      </trkpt>
      <trkpt lat="44.59158" lon="3.01046">
        <ele>1308.049</ele>
        <time>2011-06-25T14:05:08Z</time>
      </trkpt>
      <trkpt lat="44.59163" lon="3.01034">
        <ele>1308.244</ele>
        <time>2011-06-25T14:05:18Z</time>
      </trkpt>
      <trkpt lat="44.59169" lon="3.01021">
        <ele>1308.378</ele>
        <time>2011-06-25T14:05:27Z</time>
      </trkpt>
      <trkpt lat="44.59177" lon="3.01011">
        <ele>1308.743</ele>
        <time>2011-06-25T14:05:37Z</time>
      </trkpt>
      <trkpt lat="44.59183" lon="3.01">
        <ele>1308.742</ele>
        <time>2011-06-25T14:05:46Z</time>
      </trkpt>
      <trkpt lat="44.5919" lon="3.00991">
        <ele>1309.025</ele>
        <time>2011-06-25T14:05:57Z</time>
      </trkpt>
      <trkpt lat="44.59199" lon="3.00977">
        <ele>1309.016</ele>
        <time>2011-06-25T14:06:09Z</time>
      </trkpt>
      <trkpt lat="44.59208" lon="3.00961">
        <ele>1309.954</ele>
        <time>2011-06-25T14:06:22Z</time>
      </trkpt>
      <trkpt lat="44.59221" lon="3.00949">
        <ele>1311.059</ele>
        <time>2011-06-25T14:06:40Z</time>
      </trkpt>
      <trkpt lat="44.59232" lon="3.0093">
        <ele>1312.382</ele>
        <time>2011-06-25T14:06:59Z</time>
      </trkpt>
      <trkpt lat="44.59248" lon="3.00912">
        <ele>1313.059</ele>
        <time>2011-06-25T14:07:15Z</time>
      </trkpt>
      <trkpt lat="44.59261" lon="3.00901">
        <ele>1312.165</ele>
        <time>2011-06-25T14:07:29Z</time>
      </trkpt>
      <trkpt lat="44.5927" lon="3.00888">
        <ele>1312.942</ele>
        <time>2011-06-25T14:07:41Z</time>
      </trkpt>
      <trkpt lat="44.59281" lon="3.00876">
        <ele>1312.86</ele>
        <time>2011-06-25T14:07:55Z</time>
      </trkpt>
      <trkpt lat="44.59292" lon="3.00864">
        <ele>1313.619</ele>
        <time>2011-06-25T14:08:09Z</time>
      </trkpt>
      <trkpt lat="44.59303" lon="3.00842">
        <ele>1315.585</ele>
        <time>2011-06-25T14:08:24Z</time>
      </trkpt>
      <trkpt lat="44.5931" lon="3.00832">
        <ele>1316.089</ele>
        <time>2011-06-25T14:08:35Z</time>
      </trkpt>
      <trkpt lat="44.59315" lon="3.00822">
        <ele>1316.526</ele>
        <time>2011-06-25T14:08:44Z</time>
      </trkpt>
      <trkpt lat="44.59323" lon="3.00811">
        <ele>1316.529</ele>
        <time>2011-06-25T14:08:53Z</time>
      </trkpt>
      <trkpt lat="44.59332" lon="3.008">
        <ele>1316.662</ele>
        <time>2011-06-25T14:09:07Z</time>
      </trkpt>
      <trkpt lat="44.59341" lon="3.00788">
        <ele>1316.355</ele>
        <time>2011-06-25T14:09:18Z</time>
      </trkpt>
      <trkpt lat="44.59353" lon="3.00773">
        <ele>1317.624</ele>
        <time>2011-06-25T14:09:30Z</time>
      </trkpt>
      <trkpt lat="44.59356" lon="3.00757">
        <ele>1317.359</ele>
        <time>2011-06-25T14:09:42Z</time>
      </trkpt>
      <trkpt lat="44.5936" lon="3.00743">
        <ele>1317.352</ele>
        <time>2011-06-25T14:10:17Z</time>
      </trkpt>
      <trkpt lat="44.5937" lon="3.00732">
        <ele>1317.939</ele>
        <time>2011-06-25T14:10:31Z</time>
      </trkpt>
      <trkpt lat="44.59377" lon="3.00716">
        <ele>1317.366</ele>
        <time>2011-06-25T14:10:47Z</time>
      </trkpt>
      <trkpt lat="44.59379" lon="3.00691">
        <ele>1317.464</ele>
        <time>2011-06-25T14:11:01Z</time>
      </trkpt>
      <trkpt lat="44.5939" lon="3.00678">
        <ele>1316.154</ele>
        <time>2011-06-25T14:11:13Z</time>
      </trkpt>
      <trkpt lat="44.59395" lon="3.0066">
        <ele>1315.47</ele>
        <time>2011-06-25T14:11:26Z</time>
      </trkpt>
      <trkpt lat="44.59399" lon="3.0064">
        <ele>1314.875</ele>
        <time>2011-06-25T14:11:39Z</time>
      </trkpt>
      <trkpt lat="44.59406" lon="3.0062">
        <ele>1314.006</ele>
        <time>2011-06-25T14:11:52Z</time>
      </trkpt>
      <trkpt lat="44.59411" lon="3.00601">
        <ele>1314.315</ele>
        <time>2011-06-25T14:12:03Z</time>
      </trkpt>
      <trkpt lat="44.59414" lon="3.00586">
        <ele>1313.948</ele>
        <time>2011-06-25T14:12:12Z</time>
      </trkpt>
      <trkpt lat="44.59425" lon="3.0057">
        <ele>1314.356</ele>
        <time>2011-06-25T14:12:24Z</time>
      </trkpt>
      <trkpt lat="44.59435" lon="3.00552">
        <ele>1314.89</ele>
        <time>2011-06-25T14:12:36Z</time>
      </trkpt>
      <trkpt lat="44.59445" lon="3.00529">
        <ele>1316.151</ele>
        <time>2011-06-25T14:12:52Z</time>
      </trkpt>
      <trkpt lat="44.5946" lon="3.00509">
        <ele>1318.42</ele>
        <time>2011-06-25T14:13:13Z</time>
      </trkpt>
      <trkpt lat="44.59463" lon="3.00479">
        <ele>1320.428</ele>
        <time>2011-06-25T14:13:36Z</time>
      </trkpt>
      <trkpt lat="44.59467" lon="3.00452">
        <ele>1319.938</ele>
        <time>2011-06-25T14:13:57Z</time>
      </trkpt>
      <trkpt lat="44.59475" lon="3.00439">
        <ele>1319.368</ele>
        <time>2011-06-25T14:14:05Z</time>
      </trkpt>
      <trkpt lat="44.59472" lon="3.00423">
        <ele>1318.516</ele>
        <time>2011-06-25T14:14:11Z</time>
      </trkpt>
      <trkpt lat="44.59466" lon="3.00404">
        <ele>1318.16</ele>
        <time>2011-06-25T14:14:26Z</time>
      </trkpt>
      <trkpt lat="44.59468" lon="3.00388">
        <ele>1317.877</ele>
        <time>2011-06-25T14:14:34Z</time>
      </trkpt>
      <trkpt lat="44.59472" lon="3.0037">
        <ele>1317.631</ele>
        <time>2011-06-25T14:14:44Z</time>
      </trkpt>
      <trkpt lat="44.59467" lon="3.00348">
        <ele>1316.92</ele>
        <time>2011-06-25T14:14:57Z</time>
      </trkpt>
      <trkpt lat="44.59462" lon="3.00319">
        <ele>1317.055</ele>
        <time>2011-06-25T14:15:16Z</time>
      </trkpt>
      <trkpt lat="44.59462" lon="3.00286">
        <ele>1316.738</ele>
        <time>2011-06-25T14:15:31Z</time>
      </trkpt>
      <trkpt lat="44.59469" lon="3.00265">
        <ele>1315.819</ele>
        <time>2011-06-25T14:15:40Z</time>
      </trkpt>
      <trkpt lat="44.59475" lon="3.00245">
        <ele>1316.159</ele>
        <time>2011-06-25T14:15:50Z</time>
      </trkpt>
      <trkpt lat="44.59477" lon="3.00224">
        <ele>1315.99</ele>
        <time>2011-06-25T14:16:00Z</time>
      </trkpt>
      <trkpt lat="44.59482" lon="3.00206">
        <ele>1317.164</ele>
        <time>2011-06-25T14:16:11Z</time>
      </trkpt>
      <trkpt lat="44.59486" lon="3.00184">
        <ele>1317.285</ele>
        <time>2011-06-25T14:16:24Z</time>
      </trkpt>
      <trkpt lat="44.59487" lon="3.00157">
        <ele>1316.175</ele>
        <time>2011-06-25T14:16:39Z</time>
      </trkpt>
      <trkpt lat="44.59496" lon="3.00146">
        <ele>1315.98</ele>
        <time>2011-06-25T14:16:49Z</time>
      </trkpt>
      <trkpt lat="44.59506" lon="3.00125">
        <ele>1316.672</ele>
        <time>2011-06-25T14:16:56Z</time>
      </trkpt>
      <trkpt lat="44.59505" lon="3.00111">
        <ele>1315.329</ele>
        <time>2011-06-25T14:17:03Z</time>
      </trkpt>
      <trkpt lat="44.59507" lon="3.00097">
        <ele>1316.677</ele>
        <time>2011-06-25T14:17:13Z</time>
      </trkpt>
      <trkpt lat="44.5951" lon="3.00085">
        <ele>1315.864</ele>
        <time>2011-06-25T14:17:24Z</time>
      </trkpt>
      <trkpt lat="44.59515" lon="3.00076">
        <ele>1316.281</ele>
        <time>2011-06-25T14:17:34Z</time>
      </trkpt>
      <trkpt lat="44.59517" lon="3.00059">
        <ele>1316.115</ele>
        <time>2011-06-25T14:17:42Z</time>
      </trkpt>
      <trkpt lat="44.5953" lon="3.00043">
        <ele>1316.057</ele>
        <time>2011-06-25T14:17:50Z</time>
      </trkpt>
      <trkpt lat="44.59538" lon="3.0004">
        <ele>1317.552</ele>
        <time>2011-06-25T14:17:54Z</time>
      </trkpt>
      <trkpt lat="44.59544" lon="3.00031">
        <ele>1318.699</ele>
        <time>2011-06-25T14:18:01Z</time>
      </trkpt>
      <trkpt lat="44.59541" lon="3.0001">
        <ele>1318.688</ele>
        <time>2011-06-25T14:18:11Z</time>
      </trkpt>
      <trkpt lat="44.59545" lon="2.99994">
        <ele>1318.078</ele>
        <time>2011-06-25T14:18:19Z</time>
      </trkpt>
      <trkpt lat="44.59547" lon="2.99978">
        <ele>1319.24</ele>
        <time>2011-06-25T14:18:27Z</time>
      </trkpt>
      <trkpt lat="44.59551" lon="2.99961">
        <ele>1318.363</ele>
        <time>2011-06-25T14:18:38Z</time>
      </trkpt>
      <trkpt lat="44.59554" lon="2.99943">
        <ele>1318.128</ele>
        <time>2011-06-25T14:18:48Z</time>
      </trkpt>
      <trkpt lat="44.59554" lon="2.99929">
        <ele>1319.008</ele>
        <time>2011-06-25T14:18:59Z</time>
      </trkpt>
      <trkpt lat="44.59566" lon="2.99915">
        <ele>1318.321</ele>
        <time>2011-06-25T14:19:08Z</time>
      </trkpt>
      <trkpt lat="44.59578" lon="2.99906">
        <ele>1317.401</ele>
        <time>2011-06-25T14:19:17Z</time>
      </trkpt>
      <trkpt lat="44.59586" lon="2.9989">
        <ele>1316.942</ele>
        <time>2011-06-25T14:19:26Z</time>
      </trkpt>
      <trkpt lat="44.59592" lon="2.99877">
        <ele>1315.343</ele>
        <time>2011-06-25T14:19:35Z</time>
      </trkpt>
      <trkpt lat="44.59596" lon="2.99862">
        <ele>1314.344</ele>
        <time>2011-06-25T14:19:43Z</time>
      </trkpt>
      <trkpt lat="44.59599" lon="2.99849">
        <ele>1316.257</ele>
        <time>2011-06-25T14:19:52Z</time>
      </trkpt>
      <trkpt lat="44.59601" lon="2.99834">
        <ele>1314.482</ele>
        <time>2011-06-25T14:20:02Z</time>
      </trkpt>
      <trkpt lat="44.5962" lon="2.99827">
        <ele>1315.126</ele>
        <time>2011-06-25T14:20:10Z</time>
      </trkpt>
      <trkpt lat="44.59617" lon="2.99805">
        <ele>1315.211</ele>
        <time>2011-06-25T14:20:20Z</time>
      </trkpt>
      <trkpt lat="44.59624" lon="2.99794">
        <ele>1315.142</ele>
        <time>2011-06-25T14:20:27Z</time>
      </trkpt>
      <trkpt lat="44.59626" lon="2.99777">
        <ele>1314.986</ele>
        <time>2011-06-25T14:20:37Z</time>
      </trkpt>
      <trkpt lat="44.59629" lon="2.99765">
        <ele>1315.676</ele>
        <time>2011-06-25T14:20:45Z</time>
      </trkpt>
      <trkpt lat="44.59629" lon="2.99743">
        <ele>1313.715</ele>
        <time>2011-06-25T14:20:56Z</time>
      </trkpt>
      <trkpt lat="44.59635" lon="2.99733">
        <ele>1315.536</ele>
        <time>2011-06-25T14:21:05Z</time>
      </trkpt>
      <trkpt lat="44.59648" lon="2.99722">
        <ele>1313.892</ele>
        <time>2011-06-25T14:21:16Z</time>
      </trkpt>
      <trkpt lat="44.59656" lon="2.99709">
        <ele>1314.104</ele>
        <time>2011-06-25T14:21:23Z</time>
      </trkpt>
      <trkpt lat="44.59656" lon="2.99691">
        <ele>1314.556</ele>
        <time>2011-06-25T14:21:31Z</time>
      </trkpt>
      <trkpt lat="44.59661" lon="2.9968">
        <ele>1314.32</ele>
        <time>2011-06-25T14:21:41Z</time>
      </trkpt>
      <trkpt lat="44.59672" lon="2.99664">
        <ele>1312.96</ele>
        <time>2011-06-25T14:21:51Z</time>
      </trkpt>
      <trkpt lat="44.59674" lon="2.9965">
        <ele>1313.47</ele>
        <time>2011-06-25T14:21:59Z</time>
      </trkpt>
      <trkpt lat="44.59674" lon="2.99637">
        <ele>1313.895</ele>
        <time>2011-06-25T14:22:09Z</time>
      </trkpt>
      <trkpt lat="44.59671" lon="2.99623">
        <ele>1314.865</ele>
        <time>2011-06-25T14:22:17Z</time>
      </trkpt>
      <trkpt lat="44.59674" lon="2.99608">
        <ele>1313.966</ele>
        <time>2011-06-25T14:22:28Z</time>
      </trkpt>
      <trkpt lat="44.59669" lon="2.99581">
        <ele>1311.797</ele>
        <time>2011-06-25T14:22:41Z</time>
      </trkpt>
      <trkpt lat="44.59677" lon="2.99565">
        <ele>1314.675</ele>
        <time>2011-06-25T14:22:49Z</time>
      </trkpt>
      <trkpt lat="44.59691" lon="2.99552">
        <ele>1313.718</ele>
        <time>2011-06-25T14:22:58Z</time>
      </trkpt>
      <trkpt lat="44.59695" lon="2.99538">
        <ele>1315</ele>
        <time>2011-06-25T14:23:06Z</time>
      </trkpt>
      <trkpt lat="44.59706" lon="2.99528">
        <ele>1312.666</ele>
        <time>2011-06-25T14:23:13Z</time>
      </trkpt>
      <trkpt lat="44.59716" lon="2.99517">
        <ele>1312.32</ele>
        <time>2011-06-25T14:23:20Z</time>
      </trkpt>
      <trkpt lat="44.59726" lon="2.99505">
        <ele>1312.363</ele>
        <time>2011-06-25T14:23:28Z</time>
      </trkpt>
      <trkpt lat="44.59724" lon="2.99485">
        <ele>1313.316</ele>
        <time>2011-06-25T14:23:38Z</time>
      </trkpt>
      <trkpt lat="44.5973" lon="2.99478">
        <ele>1312.857</ele>
        <time>2011-06-25T14:23:48Z</time>
      </trkpt>
      <trkpt lat="44.59739" lon="2.99465">
        <ele>1313.367</ele>
        <time>2011-06-25T14:23:57Z</time>
      </trkpt>
      <trkpt lat="44.59748" lon="2.99449">
        <ele>1313.787</ele>
        <time>2011-06-25T14:24:07Z</time>
      </trkpt>
      <trkpt lat="44.59752" lon="2.99436">
        <ele>1314.823</ele>
        <time>2011-06-25T14:24:17Z</time>
      </trkpt>
      <trkpt lat="44.59763" lon="2.99424">
        <ele>1315.784</ele>
        <time>2011-06-25T14:24:25Z</time>
      </trkpt>
      <trkpt lat="44.59771" lon="2.99408">
        <ele>1315.829</ele>
        <time>2011-06-25T14:24:36Z</time>
      </trkpt>
      <trkpt lat="44.59783" lon="2.99402">
        <ele>1315.721</ele>
        <time>2011-06-25T14:24:43Z</time>
      </trkpt>
      <trkpt lat="44.59793" lon="2.9939">
        <ele>1316.725</ele>
        <time>2011-06-25T14:24:52Z</time>
      </trkpt>
      <trkpt lat="44.59795" lon="2.99361">
        <ele>1317.61</ele>
        <time>2011-06-25T14:25:03Z</time>
      </trkpt>
      <trkpt lat="44.59788" lon="2.99365">
        <ele>1317.732</ele>
        <time>2011-06-25T14:25:12Z</time>
      </trkpt>
      <trkpt lat="44.598" lon="2.9937">
        <ele>1318.997</ele>
        <time>2011-06-25T14:25:28Z</time>
      </trkpt>
      <trkpt lat="44.59819" lon="2.99369">
        <ele>1319.243</ele>
        <time>2011-06-25T14:25:44Z</time>
      </trkpt>
      <trkpt lat="44.59834" lon="2.99365">
        <ele>1319.156</ele>
        <time>2011-06-25T14:25:55Z</time>
      </trkpt>
      <trkpt lat="44.59843" lon="2.99351">
        <ele>1318.791</ele>
        <time>2011-06-25T14:26:02Z</time>
      </trkpt>
      <trkpt lat="44.59846" lon="2.99328">
        <ele>1318.416</ele>
        <time>2011-06-25T14:26:12Z</time>
      </trkpt>
      <trkpt lat="44.59845" lon="2.99305">
        <ele>1317.542</ele>
        <time>2011-06-25T14:26:22Z</time>
      </trkpt>
      <trkpt lat="44.59842" lon="2.99285">
        <ele>1316.344</ele>
        <time>2011-06-25T14:26:31Z</time>
      </trkpt>
      <trkpt lat="44.59851" lon="2.99273">
        <ele>1317.158</ele>
        <time>2011-06-25T14:26:42Z</time>
      </trkpt>
      <trkpt lat="44.59865" lon="2.99263">
        <ele>1315.552</ele>
        <time>2011-06-25T14:26:49Z</time>
      </trkpt>
      <trkpt lat="44.59879" lon="2.99249">
        <ele>1315.496</ele>
        <time>2011-06-25T14:26:57Z</time>
      </trkpt>
      <trkpt lat="44.59888" lon="2.99238">
        <ele>1314.217</ele>
        <time>2011-06-25T14:27:04Z</time>
      </trkpt>
      <trkpt lat="44.59895" lon="2.99228">
        <ele>1313.483</ele>
        <time>2011-06-25T14:27:12Z</time>
      </trkpt>
      <trkpt lat="44.59891" lon="2.99206">
        <ele>1315.568</ele>
        <time>2011-06-25T14:27:24Z</time>
      </trkpt>
      <trkpt lat="44.5989" lon="2.99192">
        <ele>1314.336</ele>
        <time>2011-06-25T14:27:34Z</time>
      </trkpt>
      <trkpt lat="44.59901" lon="2.9918">
        <ele>1315.657</ele>
        <time>2011-06-25T14:27:46Z</time>
      </trkpt>
      <trkpt lat="44.59915" lon="2.99172">
        <ele>1316.574</ele>
        <time>2011-06-25T14:27:56Z</time>
      </trkpt>
      <trkpt lat="44.59919" lon="2.99159">
        <ele>1314.508</ele>
        <time>2011-06-25T14:28:07Z</time>
      </trkpt>
      <trkpt lat="44.59938" lon="2.99155">
        <ele>1315.626</ele>
        <time>2011-06-25T14:28:12Z</time>
      </trkpt>
      <trkpt lat="44.59943" lon="2.99146">
        <ele>1316.339</ele>
        <time>2011-06-25T14:28:19Z</time>
      </trkpt>
      <trkpt lat="44.59934" lon="2.99135">
        <ele>1315.562</ele>
        <time>2011-06-25T14:28:32Z</time>
      </trkpt>
      <trkpt lat="44.5994" lon="2.99121">
        <ele>1318.493</ele>
        <time>2011-06-25T14:28:40Z</time>
      </trkpt>
      <trkpt lat="44.59948" lon="2.99119">
        <ele>1314.32</ele>
        <time>2011-06-25T14:28:49Z</time>
      </trkpt>
      <trkpt lat="44.59958" lon="2.99114">
        <ele>1313.475</ele>
        <time>2011-06-25T14:29:01Z</time>
      </trkpt>
      <trkpt lat="44.59968" lon="2.99116">
        <ele>1312.925</ele>
        <time>2011-06-25T14:29:19Z</time>
      </trkpt>
      <trkpt lat="44.59971" lon="2.99118">
        <ele>1313.881</ele>
        <time>2011-06-25T14:30:06Z</time>
      </trkpt>
      <trkpt lat="44.59964" lon="2.99121">
        <ele>1314.927</ele>
        <time>2011-06-25T14:32:03Z</time>
      </trkpt>
      <trkpt lat="44.59976" lon="2.99125">
        <ele>1317.401</ele>
        <time>2011-06-25T14:34:33Z</time>
      </trkpt>
      <trkpt lat="44.59982" lon="2.99139">
        <ele>1317.487</ele>
        <time>2011-06-25T14:35:31Z</time>
      </trkpt>
      <trkpt lat="44.59984" lon="2.99152">
        <ele>1318.375</ele>
        <time>2011-06-25T14:35:41Z</time>
      </trkpt>
      <trkpt lat="44.59991" lon="2.99166">
        <ele>1317.886</ele>
        <time>2011-06-25T14:35:54Z</time>
      </trkpt>
      <trkpt lat="44.59993" lon="2.99181">
        <ele>1316.203</ele>
        <time>2011-06-25T14:36:04Z</time>
      </trkpt>
      <trkpt lat="44.59997" lon="2.99194">
        <ele>1316.699</ele>
        <time>2011-06-25T14:36:13Z</time>
      </trkpt>
      <trkpt lat="44.59999" lon="2.99206">
        <ele>1314.941</ele>
        <time>2011-06-25T14:36:21Z</time>
      </trkpt>
      <trkpt lat="44.60004" lon="2.99219">
        <ele>1314.655</ele>
        <time>2011-06-25T14:36:30Z</time>
      </trkpt>
      <trkpt lat="44.60005" lon="2.99231">
        <ele>1312.915</ele>
        <time>2011-06-25T14:36:40Z</time>
      </trkpt>
      <trkpt lat="44.60015" lon="2.99247">
        <ele>1312.657</ele>
        <time>2011-06-25T14:36:56Z</time>
      </trkpt>
      <trkpt lat="44.6002" lon="2.9926">
        <ele>1310.647</ele>
        <time>2011-06-25T14:37:07Z</time>
      </trkpt>
      <trkpt lat="44.60023" lon="2.99275">
        <ele>1309.187</ele>
        <time>2011-06-25T14:37:18Z</time>
      </trkpt>
      <trkpt lat="44.60027" lon="2.99287">
        <ele>1307.082</ele>
        <time>2011-06-25T14:37:29Z</time>
      </trkpt>
      <trkpt lat="44.60036" lon="2.99302">
        <ele>1306.837</ele>
        <time>2011-06-25T14:37:41Z</time>
      </trkpt>
      <trkpt lat="44.60043" lon="2.99317">
        <ele>1304.782</ele>
        <time>2011-06-25T14:37:52Z</time>
      </trkpt>
      <trkpt lat="44.60047" lon="2.99333">
        <ele>1303.442</ele>
        <time>2011-06-25T14:38:02Z</time>
      </trkpt>
      <trkpt lat="44.60044" lon="2.99345">
        <ele>1302.809</ele>
        <time>2011-06-25T14:38:11Z</time>
      </trkpt>
      <trkpt lat="44.60054" lon="2.99357">
        <ele>1301.725</ele>
        <time>2011-06-25T14:38:24Z</time>
      </trkpt>
      <trkpt lat="44.60067" lon="2.99367">
        <ele>1301.002</ele>
        <time>2011-06-25T14:38:42Z</time>
      </trkpt>
      <trkpt lat="44.60077" lon="2.99387">
        <ele>1299.046</ele>
        <time>2011-06-25T14:38:55Z</time>
      </trkpt>
      <trkpt lat="44.60083" lon="2.99404">
        <ele>1298.993</ele>
        <time>2011-06-25T14:39:05Z</time>
      </trkpt>
      <trkpt lat="44.60099" lon="2.99411">
        <ele>1298.124</ele>
        <time>2011-06-25T14:39:15Z</time>
      </trkpt>
      <trkpt lat="44.60109" lon="2.99423">
        <ele>1296.653</ele>
        <time>2011-06-25T14:39:26Z</time>
      </trkpt>
      <trkpt lat="44.6012" lon="2.99435">
        <ele>1295.953</ele>
        <time>2011-06-25T14:39:36Z</time>
      </trkpt>
      <trkpt lat="44.60128" lon="2.99447">
        <ele>1295.783</ele>
        <time>2011-06-25T14:39:45Z</time>
      </trkpt>
      <trkpt lat="44.60142" lon="2.99458">
        <ele>1295.593</ele>
        <time>2011-06-25T14:39:57Z</time>
      </trkpt>
      <trkpt lat="44.60151" lon="2.9947">
        <ele>1292.961</ele>
        <time>2011-06-25T14:40:04Z</time>
      </trkpt>
      <trkpt lat="44.60157" lon="2.99484">
        <ele>1291.714</ele>
        <time>2011-06-25T14:40:15Z</time>
      </trkpt>
      <trkpt lat="44.60163" lon="2.99494">
        <ele>1292.035</ele>
        <time>2011-06-25T14:40:26Z</time>
      </trkpt>
      <trkpt lat="44.60173" lon="2.99507">
        <ele>1290.246</ele>
        <time>2011-06-25T14:40:36Z</time>
      </trkpt>
      <trkpt lat="44.60181" lon="2.99519">
        <ele>1288.601</ele>
        <time>2011-06-25T14:40:44Z</time>
      </trkpt>
      <trkpt lat="44.60192" lon="2.99525">
        <ele>1289.058</ele>
        <time>2011-06-25T14:40:53Z</time>
      </trkpt>
      <trkpt lat="44.60206" lon="2.99537">
        <ele>1286.372</ele>
        <time>2011-06-25T14:41:07Z</time>
      </trkpt>
      <trkpt lat="44.60217" lon="2.99554">
        <ele>1287.085</ele>
        <time>2011-06-25T14:42:51Z</time>
      </trkpt>
      <trkpt lat="44.6022" lon="2.99563">
        <ele>1285.808</ele>
        <time>2011-06-25T14:43:09Z</time>
      </trkpt>
      <trkpt lat="44.60228" lon="2.99565">
        <ele>1287.136</ele>
        <time>2011-06-25T14:43:21Z</time>
      </trkpt>
      <trkpt lat="44.6024" lon="2.99571">
        <ele>1285.194</ele>
        <time>2011-06-25T14:43:52Z</time>
      </trkpt>
      <trkpt lat="44.60247" lon="2.99576">
        <ele>1284.265</ele>
        <time>2011-06-25T14:44:05Z</time>
      </trkpt>
      <trkpt lat="44.60259" lon="2.99588">
        <ele>1282.958</ele>
        <time>2011-06-25T14:44:19Z</time>
      </trkpt>
      <trkpt lat="44.60275" lon="2.99598">
        <ele>1281.299</ele>
        <time>2011-06-25T14:44:28Z</time>
      </trkpt>
      <trkpt lat="44.60282" lon="2.99601">
        <ele>1281.233</ele>
        <time>2011-06-25T14:44:37Z</time>
      </trkpt>
      <trkpt lat="44.60315" lon="2.99615">
        <ele>1276.408</ele>
        <time>2011-06-25T14:45:09Z</time>
      </trkpt>
      <trkpt lat="44.60357" lon="2.99639">
        <ele>1271.599</ele>
        <time>2011-06-25T14:45:54Z</time>
      </trkpt>
      <trkpt lat="44.60386" lon="2.99648">
        <ele>1269.904</ele>
        <time>2011-06-25T14:46:08Z</time>
      </trkpt>
      <trkpt lat="44.60405" lon="2.99663">
        <ele>1267.203</ele>
        <time>2011-06-25T14:46:36Z</time>
      </trkpt>
      <trkpt lat="44.6042" lon="2.99678">
        <ele>1265.122</ele>
        <time>2011-06-25T14:46:54Z</time>
      </trkpt>
      <trkpt lat="44.60436" lon="2.99693">
        <ele>1264.382</ele>
        <time>2011-06-25T14:48:57Z</time>
      </trkpt>
      <trkpt lat="44.60465" lon="2.99697">
        <ele>1258.297</ele>
        <time>2011-06-25T14:50:47Z</time>
      </trkpt>
      <trkpt lat="44.60484" lon="2.99705">
        <ele>1255.841</ele>
        <time>2011-06-25T14:51:05Z</time>
      </trkpt>
      <trkpt lat="44.6051" lon="2.99703">
        <ele>1252.993</ele>
        <time>2011-06-25T14:51:24Z</time>
      </trkpt>
      <trkpt lat="44.60529" lon="2.99697">
        <ele>1249.429</ele>
        <time>2011-06-25T14:51:43Z</time>
      </trkpt>
      <trkpt lat="44.60549" lon="2.99706">
        <ele>1245.357</ele>
        <time>2011-06-25T14:52:04Z</time>
      </trkpt>
      <trkpt lat="44.60573" lon="2.9971">
        <ele>1240.016</ele>
        <time>2011-06-25T14:52:34Z</time>
      </trkpt>
      <trkpt lat="44.60627" lon="2.99681">
        <ele>1230.5</ele>
        <time>2011-06-25T14:53:35Z</time>
      </trkpt>
      <trkpt lat="44.60658" lon="2.99674">
        <ele>1225.774</ele>
        <time>2011-06-25T14:54:06Z</time>
      </trkpt>
      <trkpt lat="44.60699" lon="2.99686">
        <ele>1219.253</ele>
        <time>2011-06-25T14:54:49Z</time>
      </trkpt>
      <trkpt lat="44.60716" lon="2.99707">
        <ele>1216.236</ele>
        <time>2011-06-25T14:55:43Z</time>
      </trkpt>
      <trkpt lat="44.6072" lon="2.99703">
        <ele>1217.77</ele>
        <time>2011-06-25T14:57:09Z</time>
      </trkpt>
      <trkpt lat="44.60737" lon="2.99691">
        <ele>1217.664</ele>
        <time>2011-06-25T14:57:24Z</time>
      </trkpt>
      <trkpt lat="44.60748" lon="2.99686">
        <ele>1217.463</ele>
        <time>2011-06-25T14:57:32Z</time>
      </trkpt>
      <trkpt lat="44.60755" lon="2.99675">
        <ele>1216.606</ele>
        <time>2011-06-25T14:57:45Z</time>
      </trkpt>
      <trkpt lat="44.60766" lon="2.99664">
        <ele>1215.789</ele>
        <time>2011-06-25T14:57:56Z</time>
      </trkpt>
      <trkpt lat="44.60774" lon="2.9965">
        <ele>1215.557</ele>
        <time>2011-06-25T14:58:04Z</time>
      </trkpt>
      <trkpt lat="44.60779" lon="2.99635">
        <ele>1215.097</ele>
        <time>2011-06-25T14:58:14Z</time>
      </trkpt>
      <trkpt lat="44.60791" lon="2.99634">
        <ele>1214.837</ele>
        <time>2011-06-25T14:58:23Z</time>
      </trkpt>
      <trkpt lat="44.60802" lon="2.99629">
        <ele>1214.999</ele>
        <time>2011-06-25T14:58:34Z</time>
      </trkpt>
      <trkpt lat="44.60817" lon="2.9962">
        <ele>1214.79</ele>
        <time>2011-06-25T14:58:51Z</time>
      </trkpt>
      <trkpt lat="44.60828" lon="2.99615">
        <ele>1214.372</ele>
        <time>2011-06-25T14:59:01Z</time>
      </trkpt>
      <trkpt lat="44.60845" lon="2.99609">
        <ele>1214.551</ele>
        <time>2011-06-25T14:59:14Z</time>
      </trkpt>
      <trkpt lat="44.60853" lon="2.99604">
        <ele>1214.678</ele>
        <time>2011-06-25T14:59:21Z</time>
      </trkpt>
      <trkpt lat="44.60865" lon="2.99588">
        <ele>1214.422</ele>
        <time>2011-06-25T14:59:32Z</time>
      </trkpt>
      <trkpt lat="44.60878" lon="2.99573">
        <ele>1215.122</ele>
        <time>2011-06-25T14:59:46Z</time>
      </trkpt>
      <trkpt lat="44.60886" lon="2.99557">
        <ele>1215.13</ele>
        <time>2011-06-25T14:59:58Z</time>
      </trkpt>
      <trkpt lat="44.60897" lon="2.99545">
        <ele>1214.95</ele>
        <time>2011-06-25T15:00:10Z</time>
      </trkpt>
      <trkpt lat="44.60907" lon="2.99529">
        <ele>1215.207</ele>
        <time>2011-06-25T15:00:21Z</time>
      </trkpt>
      <trkpt lat="44.60914" lon="2.99516">
        <ele>1215.199</ele>
        <time>2011-06-25T15:00:31Z</time>
      </trkpt>
      <trkpt lat="44.60924" lon="2.995">
        <ele>1215.701</ele>
        <time>2011-06-25T15:00:42Z</time>
      </trkpt>
      <trkpt lat="44.60935" lon="2.99493">
        <ele>1215.759</ele>
        <time>2011-06-25T15:00:54Z</time>
      </trkpt>
      <trkpt lat="44.60945" lon="2.99485">
        <ele>1216.507</ele>
        <time>2011-06-25T15:01:06Z</time>
      </trkpt>
      <trkpt lat="44.6096" lon="2.99477">
        <ele>1218.644</ele>
        <time>2011-06-25T15:01:17Z</time>
      </trkpt>
      <trkpt lat="44.60971" lon="2.99474">
        <ele>1219.289</ele>
        <time>2011-06-25T15:01:29Z</time>
      </trkpt>
      <trkpt lat="44.60979" lon="2.9947">
        <ele>1219.802</ele>
        <time>2011-06-25T15:01:40Z</time>
      </trkpt>
      <trkpt lat="44.6099" lon="2.99474">
        <ele>1220.79</ele>
        <time>2011-06-25T15:01:50Z</time>
      </trkpt>
      <trkpt lat="44.61001" lon="2.99445">
        <ele>1223.646</ele>
        <time>2011-06-25T15:02:13Z</time>
      </trkpt>
      <trkpt lat="44.61009" lon="2.99421">
        <ele>1224.011</ele>
        <time>2011-06-25T15:02:28Z</time>
      </trkpt>
      <trkpt lat="44.61026" lon="2.99411">
        <ele>1225.551</ele>
        <time>2011-06-25T15:02:42Z</time>
      </trkpt>
      <trkpt lat="44.6103" lon="2.99392">
        <ele>1226.846</ele>
        <time>2011-06-25T15:02:53Z</time>
      </trkpt>
      <trkpt lat="44.61032" lon="2.99378">
        <ele>1229.385</ele>
        <time>2011-06-25T15:03:11Z</time>
      </trkpt>
      <trkpt lat="44.6105" lon="2.99373">
        <ele>1231.404</ele>
        <time>2011-06-25T15:03:29Z</time>
      </trkpt>
      <trkpt lat="44.61056" lon="2.99355">
        <ele>1233.806</ele>
        <time>2011-06-25T15:03:46Z</time>
      </trkpt>
      <trkpt lat="44.61065" lon="2.99337">
        <ele>1235.962</ele>
        <time>2011-06-25T15:04:04Z</time>
      </trkpt>
      <trkpt lat="44.61076" lon="2.99321">
        <ele>1238.057</ele>
        <time>2011-06-25T15:04:18Z</time>
      </trkpt>
      <trkpt lat="44.61086" lon="2.99314">
        <ele>1239.725</ele>
        <time>2011-06-25T15:04:31Z</time>
      </trkpt>
      <trkpt lat="44.61095" lon="2.99304">
        <ele>1241.448</ele>
        <time>2011-06-25T15:04:43Z</time>
      </trkpt>
      <trkpt lat="44.61106" lon="2.99299">
        <ele>1242.919</ele>
        <time>2011-06-25T15:04:54Z</time>
      </trkpt>
      <trkpt lat="44.61116" lon="2.99295">
        <ele>1245.157</ele>
        <time>2011-06-25T15:05:09Z</time>
      </trkpt>
      <trkpt lat="44.61128" lon="2.99285">
        <ele>1246.37</ele>
        <time>2011-06-25T15:05:24Z</time>
      </trkpt>
      <trkpt lat="44.61145" lon="2.99278">
        <ele>1246.975</ele>
        <time>2011-06-25T15:05:41Z</time>
      </trkpt>
      <trkpt lat="44.61164" lon="2.99272">
        <ele>1247.337</ele>
        <time>2011-06-25T15:05:55Z</time>
      </trkpt>
      <trkpt lat="44.61173" lon="2.9926">
        <ele>1247.75</ele>
        <time>2011-06-25T15:06:07Z</time>
      </trkpt>
      <trkpt lat="44.61188" lon="2.99255">
        <ele>1249.124</ele>
        <time>2011-06-25T15:06:22Z</time>
      </trkpt>
      <trkpt lat="44.61206" lon="2.99251">
        <ele>1253.362</ele>
        <time>2011-06-25T15:06:38Z</time>
      </trkpt>
      <trkpt lat="44.61217" lon="2.99246">
        <ele>1250.025</ele>
        <time>2011-06-25T15:06:53Z</time>
      </trkpt>
      <trkpt lat="44.61235" lon="2.99239">
        <ele>1249.951</ele>
        <time>2011-06-25T15:07:09Z</time>
      </trkpt>
      <trkpt lat="44.61251" lon="2.99229">
        <ele>1249.676</ele>
        <time>2011-06-25T15:07:18Z</time>
      </trkpt>
      <trkpt lat="44.61254" lon="2.99215">
        <ele>1248.601</ele>
        <time>2011-06-25T15:09:08Z</time>
      </trkpt>
      <trkpt lat="44.61266" lon="2.99204">
        <ele>1246.069</ele>
        <time>2011-06-25T15:10:34Z</time>
      </trkpt>
      <trkpt lat="44.61282" lon="2.99208">
        <ele>1246.341</ele>
        <time>2011-06-25T15:10:48Z</time>
      </trkpt>
      <trkpt lat="44.61297" lon="2.99206">
        <ele>1246.892</ele>
        <time>2011-06-25T15:11:00Z</time>
      </trkpt>
      <trkpt lat="44.61316" lon="2.99201">
        <ele>1247.784</ele>
        <time>2011-06-25T15:11:14Z</time>
      </trkpt>
      <trkpt lat="44.61327" lon="2.99199">
        <ele>1248.391</ele>
        <time>2011-06-25T15:11:25Z</time>
      </trkpt>
      <trkpt lat="44.61338" lon="2.99197">
        <ele>1248.059</ele>
        <time>2011-06-25T15:11:36Z</time>
      </trkpt>
      <trkpt lat="44.61352" lon="2.99194">
        <ele>1248.797</ele>
        <time>2011-06-25T15:11:46Z</time>
      </trkpt>
      <trkpt lat="44.61368" lon="2.99198">
        <ele>1246.424</ele>
        <time>2011-06-25T15:13:10Z</time>
      </trkpt>
      <trkpt lat="44.61377" lon="2.99199">
        <ele>1245.423</ele>
        <time>2011-06-25T15:13:20Z</time>
      </trkpt>
      <trkpt lat="44.61387" lon="2.99202">
        <ele>1245.131</ele>
        <time>2011-06-25T15:13:28Z</time>
      </trkpt>
      <trkpt lat="44.61396" lon="2.99206">
        <ele>1245.726</ele>
        <time>2011-06-25T15:13:36Z</time>
      </trkpt>
      <trkpt lat="44.61405" lon="2.99205">
        <ele>1245.906</ele>
        <time>2011-06-25T15:13:44Z</time>
      </trkpt>
      <trkpt lat="44.61415" lon="2.99202">
        <ele>1245.881</ele>
        <time>2011-06-25T15:13:54Z</time>
      </trkpt>
      <trkpt lat="44.61426" lon="2.992">
        <ele>1245.722</ele>
        <time>2011-06-25T15:14:04Z</time>
      </trkpt>
      <trkpt lat="44.61434" lon="2.99197">
        <ele>1246.145</ele>
        <time>2011-06-25T15:14:14Z</time>
      </trkpt>
      <trkpt lat="44.61446" lon="2.99191">
        <ele>1245.173</ele>
        <time>2011-06-25T15:14:23Z</time>
      </trkpt>
      <trkpt lat="44.61458" lon="2.99185">
        <ele>1244.657</ele>
        <time>2011-06-25T15:14:33Z</time>
      </trkpt>
      <trkpt lat="44.61468" lon="2.99184">
        <ele>1244.036</ele>
        <time>2011-06-25T15:14:41Z</time>
      </trkpt>
      <trkpt lat="44.6148" lon="2.99174">
        <ele>1244.313</ele>
        <time>2011-06-25T15:14:55Z</time>
      </trkpt>
      <trkpt lat="44.61492" lon="2.9917">
        <ele>1244.749</ele>
        <time>2011-06-25T15:15:05Z</time>
      </trkpt>
      <trkpt lat="44.61506" lon="2.9917">
        <ele>1244.221</ele>
        <time>2011-06-25T15:15:15Z</time>
      </trkpt>
      <trkpt lat="44.61515" lon="2.99175">
        <ele>1243.391</ele>
        <time>2011-06-25T15:15:24Z</time>
      </trkpt>
      <trkpt lat="44.6153" lon="2.9918">
        <ele>1245</ele>
        <time>2011-06-25T15:15:34Z</time>
      </trkpt>
      <trkpt lat="44.61538" lon="2.99186">
        <ele>1245.172</ele>
        <time>2011-06-25T15:15:42Z</time>
      </trkpt>
      <trkpt lat="44.61544" lon="2.99196">
        <ele>1245.015</ele>
        <time>2011-06-25T15:15:50Z</time>
      </trkpt>
      <trkpt lat="44.61552" lon="2.99204">
        <ele>1245.182</ele>
        <time>2011-06-25T15:15:58Z</time>
      </trkpt>
      <trkpt lat="44.61559" lon="2.99215">
        <ele>1243.903</ele>
        <time>2011-06-25T15:16:07Z</time>
      </trkpt>
      <trkpt lat="44.61568" lon="2.99224">
        <ele>1243.983</ele>
        <time>2011-06-25T15:16:15Z</time>
      </trkpt>
      <trkpt lat="44.61576" lon="2.99234">
        <ele>1243.558</ele>
        <time>2011-06-25T15:16:43Z</time>
      </trkpt>
      <trkpt lat="44.61583" lon="2.99245">
        <ele>1242.789</ele>
        <time>2011-06-25T15:16:58Z</time>
      </trkpt>
      <trkpt lat="44.61586" lon="2.99243">
        <ele>1242.693</ele>
        <time>2011-06-25T15:18:09Z</time>
      </trkpt>
      <trkpt lat="44.61596" lon="2.99236">
        <ele>1242.499</ele>
        <time>2011-06-25T15:18:20Z</time>
      </trkpt>
      <trkpt lat="44.61603" lon="2.99224">
        <ele>1242.21</ele>
        <time>2011-06-25T15:18:32Z</time>
      </trkpt>
      <trkpt lat="44.61607" lon="2.99212">
        <ele>1242.576</ele>
        <time>2011-06-25T15:18:41Z</time>
      </trkpt>
      <trkpt lat="44.61614" lon="2.99201">
        <ele>1243.032</ele>
        <time>2011-06-25T15:18:50Z</time>
      </trkpt>
      <trkpt lat="44.6162" lon="2.9919">
        <ele>1243.595</ele>
        <time>2011-06-25T15:19:00Z</time>
      </trkpt>
      <trkpt lat="44.61627" lon="2.99182">
        <ele>1244.262</ele>
        <time>2011-06-25T15:19:10Z</time>
      </trkpt>
      <trkpt lat="44.6164" lon="2.9918">
        <ele>1244.67</ele>
        <time>2011-06-25T15:19:20Z</time>
      </trkpt>
      <trkpt lat="44.61651" lon="2.99176">
        <ele>1245.456</ele>
        <time>2011-06-25T15:19:31Z</time>
      </trkpt>
      <trkpt lat="44.61659" lon="2.99171">
        <ele>1247.233</ele>
        <time>2011-06-25T15:19:41Z</time>
      </trkpt>
      <trkpt lat="44.61668" lon="2.9916">
        <ele>1248.102</ele>
        <time>2011-06-25T15:19:51Z</time>
      </trkpt>
      <trkpt lat="44.61678" lon="2.99151">
        <ele>1248.999</ele>
        <time>2011-06-25T15:20:05Z</time>
      </trkpt>
      <trkpt lat="44.61686" lon="2.99145">
        <ele>1250.57</ele>
        <time>2011-06-25T15:20:17Z</time>
      </trkpt>
      <trkpt lat="44.61696" lon="2.99138">
        <ele>1251.711</ele>
        <time>2011-06-25T15:20:29Z</time>
      </trkpt>
      <trkpt lat="44.61705" lon="2.9913">
        <ele>1253.711</ele>
        <time>2011-06-25T15:20:41Z</time>
      </trkpt>
      <trkpt lat="44.61714" lon="2.99122">
        <ele>1255.384</ele>
        <time>2011-06-25T15:20:52Z</time>
      </trkpt>
      <trkpt lat="44.61721" lon="2.99112">
        <ele>1256.852</ele>
        <time>2011-06-25T15:21:02Z</time>
      </trkpt>
      <trkpt lat="44.61723" lon="2.991">
        <ele>1258.465</ele>
        <time>2011-06-25T15:21:13Z</time>
      </trkpt>
      <trkpt lat="44.6173" lon="2.99088">
        <ele>1260.277</ele>
        <time>2011-06-25T15:21:25Z</time>
      </trkpt>
      <trkpt lat="44.6174" lon="2.99079">
        <ele>1261.875</ele>
        <time>2011-06-25T15:21:37Z</time>
      </trkpt>
      <trkpt lat="44.6175" lon="2.99081">
        <ele>1262.321</ele>
        <time>2011-06-25T15:22:16Z</time>
      </trkpt>
      <trkpt lat="44.61762" lon="2.9908">
        <ele>1263.626</ele>
        <time>2011-06-25T15:22:28Z</time>
      </trkpt>
      <trkpt lat="44.61777" lon="2.99075">
        <ele>1264.255</ele>
        <time>2011-06-25T15:22:53Z</time>
      </trkpt>
      <trkpt lat="44.61789" lon="2.99073">
        <ele>1262.78</ele>
        <time>2011-06-25T15:23:05Z</time>
      </trkpt>
      <trkpt lat="44.61803" lon="2.99068">
        <ele>1265.922</ele>
        <time>2011-06-25T15:23:15Z</time>
      </trkpt>
      <trkpt lat="44.61816" lon="2.9906">
        <ele>1266.606</ele>
        <time>2011-06-25T15:23:29Z</time>
      </trkpt>
      <trkpt lat="44.61826" lon="2.99051">
        <ele>1267.937</ele>
        <time>2011-06-25T15:23:39Z</time>
      </trkpt>
      <trkpt lat="44.61835" lon="2.99046">
        <ele>1268.685</ele>
        <time>2011-06-25T15:23:50Z</time>
      </trkpt>
      <trkpt lat="44.61844" lon="2.99039">
        <ele>1270.126</ele>
        <time>2011-06-25T15:24:01Z</time>
      </trkpt>
      <trkpt lat="44.61851" lon="2.99032">
        <ele>1271.046</ele>
        <time>2011-06-25T15:24:11Z</time>
      </trkpt>
      <trkpt lat="44.61857" lon="2.99021">
        <ele>1272.077</ele>
        <time>2011-06-25T15:24:24Z</time>
      </trkpt>
      <trkpt lat="44.61865" lon="2.9901">
        <ele>1273.273</ele>
        <time>2011-06-25T15:24:35Z</time>
      </trkpt>
      <trkpt lat="44.61871" lon="2.98999">
        <ele>1274.44</ele>
        <time>2011-06-25T15:24:45Z</time>
      </trkpt>
      <trkpt lat="44.61876" lon="2.98986">
        <ele>1275.493</ele>
        <time>2011-06-25T15:24:55Z</time>
      </trkpt>
      <trkpt lat="44.61879" lon="2.98972">
        <ele>1276.88</ele>
        <time>2011-06-25T15:25:05Z</time>
      </trkpt>
      <trkpt lat="44.61886" lon="2.98961">
        <ele>1278.106</ele>
        <time>2011-06-25T15:25:15Z</time>
      </trkpt>
      <trkpt lat="44.61888" lon="2.98945">
        <ele>1279.237</ele>
        <time>2011-06-25T15:25:25Z</time>
      </trkpt>
      <trkpt lat="44.61889" lon="2.9893">
        <ele>1280.103</ele>
        <time>2011-06-25T15:25:35Z</time>
      </trkpt>
      <trkpt lat="44.61889" lon="2.98915">
        <ele>1281.141</ele>
        <time>2011-06-25T15:25:45Z</time>
      </trkpt>
      <trkpt lat="44.61889" lon="2.98899">
        <ele>1282.48</ele>
        <time>2011-06-25T15:25:55Z</time>
      </trkpt>
      <trkpt lat="44.6189" lon="2.98886">
        <ele>1283.728</ele>
        <time>2011-06-25T15:26:05Z</time>
      </trkpt>
      <trkpt lat="44.61893" lon="2.9887">
        <ele>1283.92</ele>
        <time>2011-06-25T15:26:15Z</time>
      </trkpt>
      <trkpt lat="44.61896" lon="2.98858">
        <ele>1284.426</ele>
        <time>2011-06-25T15:26:24Z</time>
      </trkpt>
      <trkpt lat="44.619" lon="2.98846">
        <ele>1285.48</ele>
        <time>2011-06-25T15:26:34Z</time>
      </trkpt>
      <trkpt lat="44.61905" lon="2.98834">
        <ele>1286.233</ele>
        <time>2011-06-25T15:26:43Z</time>
      </trkpt>
      <trkpt lat="44.61913" lon="2.98825">
        <ele>1286.969</ele>
        <time>2011-06-25T15:26:52Z</time>
      </trkpt>
      <trkpt lat="44.61923" lon="2.98822">
        <ele>1287.121</ele>
        <time>2011-06-25T15:27:13Z</time>
      </trkpt>
      <trkpt lat="44.61934" lon="2.98812">
        <ele>1287.246</ele>
        <time>2011-06-25T15:27:23Z</time>
      </trkpt>
      <trkpt lat="44.61945" lon="2.98807">
        <ele>1287.495</ele>
        <time>2011-06-25T15:27:34Z</time>
      </trkpt>
      <trkpt lat="44.61955" lon="2.98803">
        <ele>1288.667</ele>
        <time>2011-06-25T15:27:46Z</time>
      </trkpt>
      <trkpt lat="44.61967" lon="2.988">
        <ele>1290.162</ele>
        <time>2011-06-25T15:27:58Z</time>
      </trkpt>
      <trkpt lat="44.61977" lon="2.98792">
        <ele>1291.883</ele>
        <time>2011-06-25T15:28:12Z</time>
      </trkpt>
      <trkpt lat="44.6199" lon="2.98785">
        <ele>1293.686</ele>
        <time>2011-06-25T15:28:25Z</time>
      </trkpt>
      <trkpt lat="44.62" lon="2.98779">
        <ele>1295.751</ele>
        <time>2011-06-25T15:28:37Z</time>
      </trkpt>
      <trkpt lat="44.62009" lon="2.98767">
        <ele>1296.503</ele>
        <time>2011-06-25T15:28:50Z</time>
      </trkpt>
      <trkpt lat="44.62021" lon="2.9876">
        <ele>1297.189</ele>
        <time>2011-06-25T15:29:02Z</time>
      </trkpt>
      <trkpt lat="44.62029" lon="2.9875">
        <ele>1298.654</ele>
        <time>2011-06-25T15:29:12Z</time>
      </trkpt>
      <trkpt lat="44.62032" lon="2.98736">
        <ele>1298.702</ele>
        <time>2011-06-25T15:29:22Z</time>
      </trkpt>
      <trkpt lat="44.62037" lon="2.98723">
        <ele>1298.163</ele>
        <time>2011-06-25T15:29:33Z</time>
      </trkpt>
      <trkpt lat="44.62039" lon="2.98709">
        <ele>1298.044</ele>
        <time>2011-06-25T15:29:43Z</time>
      </trkpt>
      <trkpt lat="44.62048" lon="2.98703">
        <ele>1298.671</ele>
        <time>2011-06-25T15:29:53Z</time>
      </trkpt>
      <trkpt lat="44.6206" lon="2.98701">
        <ele>1298.845</ele>
        <time>2011-06-25T15:30:00Z</time>
      </trkpt>
      <trkpt lat="44.62071" lon="2.98703">
        <ele>1299.918</ele>
        <time>2011-06-25T15:30:11Z</time>
      </trkpt>
      <trkpt lat="44.62081" lon="2.98704">
        <ele>1299.429</ele>
        <time>2011-06-25T15:30:21Z</time>
      </trkpt>
      <trkpt lat="44.62092" lon="2.98702">
        <ele>1299.341</ele>
        <time>2011-06-25T15:30:29Z</time>
      </trkpt>
      <trkpt lat="44.62103" lon="2.987">
        <ele>1299.944</ele>
        <time>2011-06-25T15:30:40Z</time>
      </trkpt>
      <trkpt lat="44.62114" lon="2.987">
        <ele>1300.291</ele>
        <time>2011-06-25T15:30:51Z</time>
      </trkpt>
      <trkpt lat="44.62125" lon="2.98702">
        <ele>1300.296</ele>
        <time>2011-06-25T15:31:01Z</time>
      </trkpt>
      <trkpt lat="44.62131" lon="2.98701">
        <ele>1300.722</ele>
        <time>2011-06-25T15:31:36Z</time>
      </trkpt>
      <trkpt lat="44.62143" lon="2.98694">
        <ele>1301.362</ele>
        <time>2011-06-25T15:31:50Z</time>
      </trkpt>
      <trkpt lat="44.6215" lon="2.98675">
        <ele>1304.587</ele>
        <time>2011-06-25T15:34:01Z</time>
      </trkpt>
      <trkpt lat="44.62158" lon="2.98653">
        <ele>1305.456</ele>
        <time>2011-06-25T15:34:18Z</time>
      </trkpt>
      <trkpt lat="44.62168" lon="2.98634">
        <ele>1306.003</ele>
        <time>2011-06-25T15:34:34Z</time>
      </trkpt>
      <trkpt lat="44.6218" lon="2.98614">
        <ele>1306.393</ele>
        <time>2011-06-25T15:34:55Z</time>
      </trkpt>
      <trkpt lat="44.62184" lon="2.98595">
        <ele>1307.198</ele>
        <time>2011-06-25T15:35:15Z</time>
      </trkpt>
      <trkpt lat="44.62181" lon="2.98606">
        <ele>1307.361</ele>
        <time>2011-06-25T15:36:01Z</time>
      </trkpt>
      <trkpt lat="44.62197" lon="2.98611">
        <ele>1307.719</ele>
        <time>2011-06-25T15:36:14Z</time>
      </trkpt>
      <trkpt lat="44.62207" lon="2.9861">
        <ele>1307.645</ele>
        <time>2011-06-25T15:36:21Z</time>
      </trkpt>
      <trkpt lat="44.62191" lon="2.98582">
        <ele>1307.679</ele>
        <time>2011-06-25T15:36:31Z</time>
      </trkpt>
      <trkpt lat="44.62189" lon="2.98573">
        <ele>1307.505</ele>
        <time>2011-06-25T15:36:45Z</time>
      </trkpt>
      <trkpt lat="44.62187" lon="2.9856">
        <ele>1307.698</ele>
        <time>2011-06-25T15:37:00Z</time>
      </trkpt>
    </trkseg>
  </trk>
</gpx>